Bloody Springs, Mississippi
Current Conditions -  °F | °C
As of 1:53 PM on Saturday 25 Oct 2014 (Local Time) from KTUP Reporting Station
Clear Clear  
Wind Chill: 79°   Ceiling: Unl
Heat Index: 80°   Visibility: 10mi
Dew Point: 60°   Wind: 8mph
Humidity: 52%   Direction: 280°W
Pressure: 30.05"   Gusts: NA
Location:  34.5141°N, 88.2677°W
Report Text: KTUP 251853Z 28007KT 10SM CLR 26/16 A3005 RMK AO2 SLP173 T02610156 $
Loading
Personal Weather Stations






























Interactive Weather Map
Tropical Storm Tracking
New forecast layout! Learn more

10-Day Weather Forecast

Advertisements
Track Severe Weather on mobile